createdAt,value
2023-01-21T06:03:25.862Z,3.20
2023-01-21T06:08:29.823Z,3.55
2023-01-21T06:13:33.814Z,3.12
2023-01-21T06:18:39.668Z,2.80
2023-01-21T06:23:43.637Z,2.50
2023-01-21T06:33:52.548Z,3.37
2023-01-21T06:38:56.453Z,2.70
2023-01-21T06:44:00.351Z,2.37
2023-01-21T06:54:09.012Z,2.55
2023-01-21T06:59:12.619Z,2.70
2023-01-21T07:04:17.623Z,2.85
2023-01-21T07:09:21.534Z,2.78
2023-01-21T07:14:25.147Z,2.25
2023-01-21T07:19:30.144Z,2.00
2023-01-21T07:24:33.740Z,2.20
2023-01-21T07:29:37.331Z,2.17
2023-01-21T07:34:42.956Z,2.35
2023-01-21T07:39:46.564Z,1.80
2023-01-21T07:44:55.912Z,1.48
2023-01-21T07:50:04.899Z,1.33
2023-01-21T07:55:11.668Z,1.58
2023-01-21T08:00:16.897Z,2.12
2023-01-21T08:05:22.709Z,1.83
2023-01-21T08:10:26.653Z,1.83
2023-01-21T08:15:30.313Z,1.45
2023-01-21T08:20:35.423Z,1.77
2023-01-21T08:25:39.077Z,1.95
2023-01-21T08:30:42.706Z,2.10
2023-01-21T08:35:47.809Z,1.62
2023-01-21T08:40:51.449Z,1.60
2023-01-21T08:45:58.552Z,1.92
2023-01-21T08:51:03.840Z,1.75
2023-01-21T08:56:08.632Z,1.67
2023-01-21T09:01:13.586Z,2.35
2023-01-21T09:06:18.595Z,1.98
2023-01-21T09:11:23.021Z,1.70
2023-01-21T09:16:27.012Z,1.60
2023-01-21T09:21:34.555Z,1.73
2023-01-21T09:26:38.313Z,1.95
2023-01-21T09:31:42.265Z,2.00
2023-01-21T09:36:47.285Z,2.00
2023-01-21T09:41:53.236Z,1.60
2023-01-21T09:47:01.709Z,1.85
2023-01-21T09:52:26.876Z,1.62
2023-01-21T09:57:48.446Z,1.27
2023-01-21T10:02:58.991Z,0.93
2023-01-21T10:08:13.981Z,1.23
2023-01-21T10:13:43.825Z,1.20
2023-01-21T10:18:51.458Z,1.20
2023-01-21T10:24:00.042Z,1.50
2023-01-21T10:29:04.160Z,0.90
2023-01-21T10:34:14.248Z,0.98
2023-01-21T10:39:31.504Z,1.50
2023-01-21T10:44:43.867Z,1.00
2023-01-21T10:49:56.862Z,1.20
2023-01-21T10:55:06.394Z,1.08
2023-01-21T11:00:21.412Z,1.52
2023-01-21T11:05:26.772Z,1.17
2023-01-21T11:10:32.139Z,1.65
2023-01-21T11:15:49.069Z,1.65
2023-01-21T11:20:53.420Z,1.37
2023-01-21T11:26:07.700Z,1.48
2023-01-21T11:31:15.359Z,1.30
2023-01-21T11:36:20.530Z,1.40
2023-01-21T11:41:25.551Z,1.67
2023-01-21T11:46:36.608Z,1.75
2023-01-21T11:51:41.776Z,1.00
2023-01-21T11:56:56.258Z,1.17
2023-01-21T12:02:06.694Z,1.55
2023-01-21T12:07:20.941Z,1.83
2023-01-21T12:12:36.169Z,1.52
2023-01-21T12:17:53.254Z,1.05
2023-01-21T12:23:26.996Z,1.20
2023-01-21T12:28:50.252Z,1.58
2023-01-21T12:34:01.309Z,1.10
2023-01-21T12:39:19.372Z,1.85
2023-01-21T12:44:31.852Z,1.65
2023-01-21T12:50:09.769Z,1.48
2023-01-21T12:55:20.867Z,1.30
2023-01-21T13:00:30.149Z,2.08
2023-01-21T13:05:39.293Z,1.90
2023-01-21T13:10:47.118Z,1.80
2023-01-21T13:15:56.269Z,1.60
2023-01-21T13:21:06.858Z,1.65
2023-01-21T13:26:17.928Z,0.98
2023-01-21T13:31:30.227Z,1.45
2023-01-21T13:36:54.332Z,1.62
2023-01-21T13:42:07.589Z,1.67
2023-01-21T13:47:23.095Z,1.52
2023-01-21T13:52:37.936Z,1.70
2023-01-21T13:58:01.027Z,1.70
2023-01-21T14:03:17.537Z,1.45
2023-01-21T14:08:26.341Z,1.60
2023-01-21T14:14:01.229Z,1.40
2023-01-21T14:19:31.125Z,1.60
2023-01-21T14:24:50.617Z,1.50
2023-01-21T14:29:58.994Z,1.25
2023-01-21T14:35:14.862Z,1.40
2023-01-21T14:40:23.845Z,1.62
2023-01-21T14:45:52.598Z,1.58
2023-01-21T14:51:11.021Z,1.50
2023-01-21T14:56:22.817Z,1.42
2023-01-21T15:01:29.572Z,1.98
2023-01-21T15:06:39.685Z,1.12
2023-01-21T15:11:45.679Z,1.37
2023-01-21T15:16:49.983Z,1.05
2023-01-21T15:22:30.229Z,1.17
2023-01-21T15:27:35.281Z,1.25
2023-01-21T15:32:40.772Z,1.87
2023-01-21T15:37:47.979Z,1.20
2023-01-21T15:43:00.002Z,1.40
2023-01-21T15:48:25.377Z,1.25
2023-01-21T15:53:53.908Z,1.70
2023-01-21T15:59:09.880Z,1.27
2023-01-21T16:04:26.236Z,1.08
2023-01-21T16:09:42.000Z,1.40
2023-01-21T16:14:59.355Z,1.27
2023-01-21T16:20:04.384Z,1.52
2023-01-21T16:25:13.118Z,1.33
2023-01-21T16:30:22.140Z,1.10
2023-01-21T16:35:26.076Z,0.82
2023-01-21T16:40:30.761Z,1.20
2023-01-21T16:45:35.798Z,1.45
2023-01-21T16:50:39.867Z,1.17
2023-01-21T16:55:46.222Z,1.17
2023-01-21T17:01:03.923Z,1.08
2023-01-21T17:06:15.110Z,1.20
2023-01-21T17:11:19.411Z,0.88
2023-01-21T17:21:35.118Z,1.30
2023-01-21T17:26:44.896Z,1.70
2023-01-21T17:31:57.546Z,1.77
2023-01-21T17:37:01.701Z,1.48
2023-01-21T17:42:06.092Z,1.65
2023-01-21T17:52:24.163Z,1.90
2023-01-21T17:57:37.405Z,1.92
2023-01-21T18:02:42.551Z,1.95
2023-01-21T18:07:46.515Z,1.87
2023-01-21T18:12:50.556Z,2.05
2023-01-21T18:17:58.401Z,2.30
2023-01-21T18:23:02.337Z,2.58
2023-01-21T18:28:08.484Z,1.92
2023-01-21T18:33:14.037Z,2.08
2023-01-21T18:38:21.812Z,1.90
2023-01-21T18:43:26.501Z,1.70
2023-01-21T18:48:33.386Z,2.22
2023-01-21T18:53:37.416Z,2.05
2023-01-21T18:58:41.374Z,1.60
2023-01-21T19:03:47.022Z,1.65
2023-01-21T19:08:51.019Z,2.50
2023-01-21T19:13:54.934Z,2.05
2023-01-21T19:18:59.919Z,2.37
2023-01-21T19:24:03.863Z,2.25
2023-01-21T19:29:14.924Z,2.10
2023-01-21T19:34:20.111Z,2.03
2023-01-21T19:39:25.420Z,1.67
2023-01-21T19:44:29.324Z,1.67
2023-01-21T19:49:34.552Z,2.25
2023-01-21T19:54:38.442Z,2.37
2023-01-21T19:59:42.239Z,2.22
2023-01-21T20:04:47.231Z,2.70
2023-01-21T20:09:51.294Z,2.85
2023-01-21T20:14:55.211Z,3.37
2023-01-21T20:20:00.262Z,3.05
2023-01-21T20:25:04.174Z,2.92
2023-01-21T20:30:16.617Z,3.12
2023-01-21T20:35:24.668Z,3.53
2023-01-21T20:40:29.912Z,3.47
2023-01-21T20:45:35.720Z,4.07
2023-01-21T20:50:40.759Z,4.60
2023-01-21T20:55:47.682Z,3.72
2023-01-21T21:00:51.998Z,3.72
2023-01-21T21:05:57.096Z,4.90
2023-01-21T21:11:01.074Z,3.40
2023-01-21T21:16:15.361Z,3.67
2023-01-21T21:26:29.888Z,4.30
2023-01-21T21:31:34.016Z,4.97
2023-01-21T21:36:42.023Z,4.00
2023-01-21T21:42:03.618Z,3.95
2023-01-21T21:47:25.381Z,3.90
2023-01-21T21:52:31.295Z,4.57
2023-01-21T21:57:35.794Z,3.87
2023-01-21T22:02:39.829Z,4.25
2023-01-21T22:12:49.552Z,3.90
2023-01-21T22:17:53.606Z,4.55
2023-01-21T22:22:58.622Z,4.60
2023-01-21T22:28:02.662Z,4.80
2023-01-21T22:38:11.206Z,4.32
2023-01-21T22:43:15.591Z,3.80
2023-01-21T22:48:19.685Z,4.75
2023-01-21T22:53:25.670Z,4.82
2023-01-21T22:58:30.880Z,4.68
2023-01-21T23:03:35.016Z,4.22
2023-01-21T23:08:40.121Z,4.65
2023-01-21T23:13:44.578Z,4.70
2023-01-21T23:18:48.212Z,4.30
2023-01-21T23:23:53.196Z,4.80
2023-01-21T23:28:57.213Z,4.60
